KFAYKJGG

Guest
Details From KFAY - Fayetteville Rgnl Grannis Fld
To KJGG - WILLIAMSBURG JAMESTOWN
Flight Number -
Tags generated
Created
Modified
Stats Distance 171 nm / 317 km
Max Altitude 19,500 ft / 5,944 m
Waypoints 3
Social Downloads 0
Likes 0
Share

Download

Looking for another format? Having issues loading an existing format? Contact us
Advertisement - Login to hide

Notes

Basic altitude profile: - Ascent Rate: 2500ft/min - Ascent Speed: 250kts - Cruise Altitude: 20000ft - Cruise Speed: 420kts - Descent Rate: 1500ft/min - Descent Speed: 250kts Options: - Use NATs: yes - Use PACOTS: yes - Use low airways: yes - Use high airways: yes

Route

KFAY FRANZ KJGG

ID Type Via Altitude (ft/m) Position (lat/lon) Dist (leg/tot) Name
O KFAY APT - 0 / 0 34.99055 / -78.88025 - / 0 nm Fayetteville Rgnl Grannis Fld
FRANZ FIX - 19,500 / 5,944 35.95785 / -77.90773 75 / 75 nm
O KJGG APT - 0 / 0 37.23917 / -76.71609 96 / 171 nm WILLIAMSBURG JAMESTOWN

Altitude Profile

Advertisement - Login to hide

Weather


0- 5 10 15 20 25 30 35+ Temperature / °C

Clouds and Precipitation
Forecast for 2021-03-22 12:00 UTC. Updated 2 months ago

Ground ~20,000 ft ~40,000 ft Winds

KFAY

Details ICAO KFAY (FAY)
Name Fayetteville Rgnl
Region United States
Timezone America/New_York (UTC-4.0)
Stats Elevation 188 ft / 57 m (AMSL)
Location 34.990600° -78.880300°
Runways 2
Magnetic Variation 9.125° W

METAR

KFAY 081153Z AUTO 24008KT 10SM CLR 12/04 A3004 RMK AO2 SLP166 70037 T01170044 10117 20067 53014

Decode

TAF

TAF KFAY 081120Z 0812/0912 24006KT P6SM SCT100 FM081500 28012G22KT P6SM SCT080 FM082300 26010KT P6SM SKC FM090700 04005KT P6SM BKN100

Decode

Departure Runways

ID Width Length Bearing (true/mag) Surface Threshold Overrun Markings Lighting
04 150 ft / 46 m 7,721 ft / 2,353 m 31.07° / 40.20° ASPHALT 597 ft / 182 m 0 ft / 0 m PREC-APP EDGE THRESHOLD MALSR
10 150 ft / 46 m 4,793 ft / 1,461 m 91.11° / 100.24° ASPHALT 0 ft / 0 m 0 ft / 0 m APP EDGE THRESHOLD REIL-OMNI
22 150 ft / 46 m 7,721 ft / 2,353 m 211.08° / 220.20° ASPHALT 308 ft / 94 m 95 ft / 29 m PREC-APP EDGE THRESHOLD REIL-OMNI
28 150 ft / 46 m 4,793 ft / 1,461 m 271.12° / 280.24° ASPHALT 0 ft / 0 m 0 ft / 0 m APP EDGE THRESHOLD REIL-OMNI

KJGG

Details ICAO KJGG
Name WILLIAMSBURG JAMESTOWN
Region United States
Timezone America/New_York (UTC-4.0)
Stats Elevation 49 ft / 15 m (AMSL)
Location 37.239200° -76.716100°
Runways 1
Magnetic Variation 10.741° W

METAR

KJGG 081235Z AUTO 25005KT 10SM SCT075 SCT095 11/08 A2996 RMK AO1

Decode

TAF

Not found

Destination Runways

ID Width Length Bearing (true/mag) Surface Threshold Overrun Markings Lighting
13 60 ft / 18 m 3,201 ft / 976 m 120.46° / 131.20° ASPHALT 0 ft / 0 m 0 ft / 0 m APP EDGE THRESHOLD REIL-OMNI
31 60 ft / 18 m 3,201 ft / 976 m 300.47° / 311.21° ASPHALT 0 ft / 0 m 0 ft / 0 m APP EDGE THRESHOLD REIL-OMNI